Time;durP1;ratioP1;P1;durP2;ratioP2;P2;SDS_P1;SDS_P2;PMS_P1;PMS_P2;Temp;Humidity;BMP_temperature;BMP_pressure;BME280_temperature;BME280_humidity;BME280_pressure;Samples;Min_cycle;Max_cycle;Signal;HPM_P1;HPM_P2
2023/10/10 00:02:19;;;;;;;25.97;19.97;;;15.90;99.90;;;;;;4975045;28;20444;-80
2023/10/10 00:04:49;;;;;;;30.73;19.87;;;15.90;1.00;;;;;;4979566;28;20440;-80
2023/10/10 00:07:15;;;;;;;27.00;20.23;;;15.90;1.00;;;;;;4982418;28;20442;-80
2023/10/10 00:09:44;;;;;;;25.80;20.50;;;15.90;1.00;;;;;;4981696;28;20494;-80
2023/10/10 00:12:18;;;;;;;28.10;20.40;;;15.80;1.00;;;;;;4983066;28;20860;-80
2023/10/10 00:14:56;;;;;;;32.67;21.43;;;15.80;1.00;;;;;;4983065;28;20446;-80
2023/10/10 00:17:22;;;;;;;28.03;19.97;;;15.80;1.00;;;;;;4983166;28;20481;-81
2023/10/10 00:19:58;;;;;;;24.40;19.33;;;15.80;99.90;;;;;;4981829;28;20444;-80
2023/10/10 00:22:35;;;;;;;30.50;20.97;;;15.80;99.90;;;;;;4979204;28;20560;-80
2023/10/10 00:25:04;;;;;;;30.03;19.10;;;15.70;99.90;;;;;;4982160;28;20455;-80
2023/10/10 00:27:31;;;;;;;25.20;19.97;;;15.70;99.90;;;;;;4996565;28;20479;-81
2023/10/10 00:30:03;;;;;;;24.93;20.17;;;15.70;99.90;;;;;;4996513;28;20447;-81
2023/10/10 00:32:35;;;;;;;28.73;19.90;;;15.70;99.90;;;;;;4982265;28;20800;-80
2023/10/10 00:35:06;;;;;;;24.07;19.93;;;15.60;99.90;;;;;;4981623;28;20446;-80
2023/10/10 00:37:34;;;;;;;32.93;21.17;;;15.60;99.90;;;;;;4979635;28;20771;-80
2023/10/10 00:40:07;;;;;;;29.00;21.57;;;15.60;99.90;;;;;;4982169;28;20454;-82
2023/10/10 00:42:37;;;;;;;27.40;21.67;;;15.50;99.90;;;;;;4982232;28;20443;-80
2023/10/10 00:45:09;;;;;;;33.83;23.80;;;15.50;1.00;;;;;;4982153;28;20439;-80
2023/10/10 00:47:40;;;;;;;34.43;22.90;;;15.50;1.00;;;;;;4977387;28;20452;-82
2023/10/10 00:50:08;;;;;;;32.30;23.50;;;15.40;1.00;;;;;;4980426;28;20531;-79
2023/10/10 00:52:36;;;;;;;33.30;23.43;;;15.40;1.00;;;;;;4980616;28;20518;-80
2023/10/10 00:55:04;;;;;;;26.80;22.23;;;15.40;1.00;;;;;;4978856;28;20458;-80
2023/10/10 00:57:35;;;;;;;34.73;24.50;;;15.40;1.00;;;;;;4980900;28;20474;-81
2023/10/10 01:00:09;;;;;;;36.00;23.60;;;15.30;1.00;;;;;;4982256;28;20493;-80
2023/10/10 01:02:37;;;;;;;37.37;23.90;;;15.30;1.00;;;;;;4980654;28;20443;-80
2023/10/10 01:05:12;;;;;;;33.40;23.07;;;15.30;1.00;;;;;;4982306;28;20805;-79
2023/10/10 01:07:38;;;;;;;32.97;23.07;;;15.20;1.00;;;;;;4986436;28;20446;-80
2023/10/10 01:10:11;;;;;;;36.17;26.33;;;15.20;1.00;;;;;;4981724;28;20443;-80
2023/10/10 01:12:39;;;;;;;35.00;26.50;;;15.20;1.00;;;;;;4979831;28;20455;-79
2023/10/10 01:15:14;;;;;;;34.13;24.67;;;15.20;1.00;;;;;;4975126;28;20475;-79
2023/10/10 01:17:46;;;;;;;35.87;25.27;;;15.10;1.00;;;;;;4973808;28;20467;-78
2023/10/10 01:20:18;;;;;;;33.77;25.57;;;15.00;1.00;;;;;;4972320;28;20428;-79
2023/10/10 01:22:46;;;;;;;29.73;23.87;;;15.00;1.00;;;;;;4989826;28;20462;-78
2023/10/10 01:26:13;;;;;;;28.67;23.60;;;15.00;1.00;;;;;;4975019;28;20447;-78
2023/10/10 01:28:23;;;;;;;32.97;24.30;;;15.00;1.00;;;;;;4974344;28;20444;-79
2023/10/10 01:34:18;;;;;;;27.40;22.30;;;15.00;1.00;;;;;;4974244;28;20452;-78
2023/10/10 01:36:11;;;;;;;32.70;24.27;;;15.00;1.00;;;;;;4968899;28;20911;-80
2023/10/10 01:38:55;;;;;;;36.60;23.73;;;14.90;1.00;;;;;;4974690;28;20436;-77
2023/10/10 01:41:31;;;;;;;32.27;24.93;;;14.90;1.00;;;;;;4975224;28;20443;-78
2023/10/10 01:44:18;;;;;;;31.10;24.50;;;14.90;1.00;;;;;;4972221;28;20467;-78
2023/10/10 01:46:44;;;;;;;33.07;24.80;;;14.90;1.00;;;;;;4971350;28;20431;-79
2023/10/10 01:49:29;;;;;;;32.13;22.83;;;14.90;1.00;;;;;;4975850;28;20502;-80
2023/10/10 01:51:55;;;;;;;30.40;21.20;;;14.90;1.00;;;;;;4974970;28;20818;-79
2023/10/10 01:54:23;;;;;;;32.63;22.50;;;14.90;1.00;;;;;;4975420;28;20917;-79
2023/10/10 01:56:51;;;;;;;30.07;21.73;;;14.90;1.00;;;;;;4975238;28;20459;-79
2023/10/10 01:59:19;;;;;;;29.43;22.33;;;14.90;1.00;;;;;;4972788;28;20451;-80
2023/10/10 02:01:47;;;;;;;29.93;22.90;;;14.90;1.00;;;;;;4974159;28;20480;-79
2023/10/10 02:04:14;;;;;;;30.30;22.23;;;14.90;1.00;;;;;;4974585;28;20459;-80
2023/10/10 02:06:45;;;;;;;24.37;21.57;;;14.90;1.00;;;;;;4974899;28;20887;-79
2023/10/10 02:09:33;;;;;;;26.60;21.57;;;14.90;1.00;;;;;;4989852;28;20444;-79
2023/10/10 02:12:08;;;;;;;33.57;21.30;;;14.80;1.00;;;;;;4974404;28;20467;-79
2023/10/10 02:14:34;;;;;;;27.07;22.07;;;14.80;1.00;;;;;;4973256;28;20463;-80
2023/10/10 02:17:08;;;;;;;29.57;22.67;;;14.80;1.00;;;;;;4967579;28;20471;-79
2023/10/10 02:19:39;;;;;;;26.57;21.57;;;14.80;1.00;;;;;;4966890;28;20187;-79
2023/10/10 02:25:37;;;;;;;35.00;21.50;;;14.80;1.00;;;;;;4942516;28;20475;-79
2023/10/10 02:27:56;;;;;;;25.37;21.17;;;14.80;1.00;;;;;;4974450;28;20535;-80
2023/10/10 02:30:35;;;;;;;30.77;23.23;;;14.80;1.00;;;;;;4975638;28;20895;-80
2023/10/10 02:33:31;;;;;;;33.70;21.20;;;14.70;1.00;;;;;;4974109;28;21006;-80
2023/10/10 02:35:57;;;;;;;27.10;21.07;;;14.70;1.00;;;;;;4976421;28;20504;-80
2023/10/10 02:38:31;;;;;;;27.77;20.90;;;14.70;1.00;;;;;;4992789;28;20443;-79
2023/10/10 02:41:27;;;;;;;30.33;20.93;;;14.70;1.00;;;;;;4977709;28;20506;-80
2023/10/10 02:44:09;;;;;;;26.30;19.67;;;14.70;1.00;;;;;;4992063;28;20902;-80
2023/10/10 02:46:42;;;;;;;24.93;20.30;;;14.70;1.00;;;;;;4972261;28;20864;-79
2023/10/10 02:49:22;;;;;;;27.23;20.30;;;14.70;1.00;;;;;;4972088;28;20440;-80
2023/10/10 02:51:48;;;;;;;30.10;19.67;;;14.70;1.00;;;;;;4975784;28;21103;-79
2023/10/10 02:54:34;;;;;;;30.30;19.30;;;14.70;1.00;;;;;;4976071;28;20451;-81
2023/10/10 02:59:53;;;;;;;27.17;18.50;;;14.60;1.00;;;;;;4976535;28;20515;-80
2023/10/10 03:02:20;;;;;;;29.17;18.90;;;14.60;1.00;;;;;;4976578;28;20517;-79
2023/10/10 03:04:53;;;;;;;22.00;17.40;;;14.60;1.00;;;;;;4973926;28;20436;-79
2023/10/10 03:07:28;;;;;;;28.23;18.20;;;14.60;1.00;;;;;;4990719;28;20448;-80
2023/10/10 03:12:42;;;;;;;23.83;16.00;;;14.60;1.00;;;;;;4975574;28;20521;-78
2023/10/10 03:15:27;;;;;;;20.27;15.80;;;14.60;1.00;;;;;;4991450;28;20459;-80
2023/10/10 03:26:04;;;;;;;20.53;15.47;;;14.50;1.00;;;;;;4976091;28;20971;-80
2023/10/10 03:28:33;;;;;;;23.97;16.60;;;14.50;1.00;;;;;;4991614;28;20463;-80
2023/10/10 03:31:09;;;;;;;28.90;16.40;;;14.50;1.00;;;;;;4976766;28;20442;-80
2023/10/10 05:23:29;;;;;;;19.73;13.40;;;14.50;1.00;;;;;;4976429;28;20960;-81
2023/10/10 05:25:15;;;;;;;27.93;18.20;;;14.30;1.00;;;;;;4976119;28;20450;-80
2023/10/10 05:27:41;;;;;;;25.13;18.10;;;14.30;1.00;;;;;;4975987;28;20455;-80
2023/10/10 05:30:23;;;;;;;22.63;18.20;;;14.30;1.00;;;;;;4978205;28;20467;-80
2023/10/10 05:33:01;;;;;;;26.87;18.53;;;14.30;1.00;;;;;;4977463;28;20951;-80
2023/10/10 05:35:32;;;;;;;26.80;18.83;;;14.30;1.00;;;;;;4977976;28;20470;-80
2023/10/10 05:38:02;;;;;;;23.10;18.20;;;14.30;1.00;;;;;;4978028;28;20474;-79
2023/10/10 05:40:28;;;;;;;26.80;18.30;;;14.30;1.00;;;;;;4978170;28;20463;-81
2023/10/10 05:42:57;;;;;;;23.70;17.57;;;14.30;1.00;;;;;;4975134;28;20956;-80
2023/10/10 05:45:22;;;;;;;23.53;16.37;;;14.30;1.00;;;;;;4973311;28;20432;-80
2023/10/10 05:47:48;;;;;;;24.23;18.57;;;14.30;1.00;;;;;;4978150;28;20444;-81
2023/10/10 05:50:14;;;;;;;26.00;17.33;;;14.30;1.00;;;;;;4977537;28;20721;-80
2023/10/10 05:52:40;;;;;;;25.63;17.30;;;14.30;1.00;;;;;;4992223;28;20212;-81
2023/10/10 05:55:07;;;;;;;21.80;16.40;;;14.30;1.00;;;;;;4977996;28;20432;-81
2023/10/10 05:57:36;;;;;;;20.83;15.93;;;14.30;1.00;;;;;;4978223;28;20542;-80
2023/10/10 06:00:10;;;;;;;21.40;14.87;;;14.30;1.00;;;;;;4973043;28;20514;-80
2023/10/10 06:02:43;;;;;;;28.37;16.20;;;14.30;1.00;;;;;;4973741;28;20463;-79
2023/10/10 06:05:09;;;;;;;24.23;16.13;;;14.40;1.00;;;;;;4985113;28;20472;-80
2023/10/10 06:07:45;;;;;;;23.97;16.20;;;14.40;1.00;;;;;;4976776;28;20443;-79
2023/10/10 06:10:16;;;;;;;26.70;15.17;;;14.50;1.00;;;;;;4975753;28;20447;-79
2023/10/10 06:12:46;;;;;;;18.30;13.70;;;14.60;1.00;;;;;;4974806;28;20565;-79
2023/10/10 06:15:12;;;;;;;18.27;14.40;;;14.80;1.00;;;;;;4976623;28;20471;-80
2023/10/10 06:17:41;;;;;;;16.87;13.67;;;14.90;1.00;;;;;;4969563;28;20472;-78
2023/10/10 06:20:08;;;;;;;23.00;13.80;;;15.00;99.90;;;;;;4972649;28;20440;-79
2023/10/10 06:22:34;;;;;;;26.43;13.77;;;15.20;99.90;;;;;;4976018;28;20945;-79
2023/10/10 06:24:59;;;;;;;18.50;14.23;;;15.30;99.90;;;;;;4976427;28;20459;-79
2023/10/10 06:27:36;;;;;;;16.60;13.00;;;15.40;99.90;;;;;;4973302;28;20188;-79
2023/10/10 06:30:05;;;;;;;18.00;15.17;;;15.50;1.00;;;;;;4973777;28;20335;-79
2023/10/10 06:32:31;;;;;;;26.60;13.87;;;15.70;1.00;;;;;;4976595;28;20491;-80
2023/10/10 06:37:45;;;;;;;15.23;12.37;;;16.10;99.90;;;;;;4974693;28;20246;-80
2023/10/10 06:40:11;;;;;;;14.87;11.97;;;16.50;1.00;;;;;;4977931;28;20432;-80
2023/10/10 06:42:38;;;;;;;18.30;12.13;;;16.80;1.00;;;;;;4976695;28;20475;-79
2023/10/10 06:45:11;;;;;;;14.73;10.93;;;17.20;1.00;;;;;;4977328;28;20444;-80
2023/10/10 06:47:43;;;;;;;24.00;12.27;;;17.50;99.90;;;;;;4973160;28;20451;-79
2023/10/10 06:50:12;;;;;;;16.97;11.20;;;17.90;99.90;;;;;;4967126;28;20472;-80
2023/10/10 06:52:38;;;;;;;17.30;10.40;;;18.10;1.00;;;;;;4984075;28;20463;-79
2023/10/10 06:55:21;;;;;;;18.23;10.67;;;18.40;99.90;;;;;;4973507;28;20440;-79
2023/10/10 06:57:59;;;;;;;19.70;11.67;;;18.80;1.00;;;;;;4975139;28;20471;-80
2023/10/10 07:03:11;;;;;;;12.77;10.07;;;19.40;99.90;;;;;;4972994;28;20450;-79
2023/10/10 07:05:39;;;;;;;15.50;10.33;;;19.80;95.00;;;;;;4970722;28;20444;-79
2023/10/10 07:08:24;;;;;;;16.17;10.60;;;20.10;1.00;;;;;;4971662;28;21020;-79
2023/10/10 07:10:53;;;;;;;18.80;12.00;;;20.50;1.00;;;;;;4974131;28;20427;-80
2023/10/10 07:13:19;;;;;;;14.47;10.10;;;20.70;1.00;;;;;;4973699;28;20442;-80
2023/10/10 07:15:51;;;;;;;15.07;10.20;;;20.70;1.00;;;;;;4973806;28;20416;-80
2023/10/10 07:18:24;;;;;;;16.87;11.00;;;20.60;1.00;;;;;;4970490;28;20464;-79
2023/10/10 07:21:08;;;;;;;14.73;10.17;;;20.80;1.00;;;;;;4972014;28;20436;-79
2023/10/10 07:23:38;;;;;;;17.77;10.60;;;21.30;1.00;;;;;;4973634;28;20467;-79
2023/10/10 07:26:18;;;;;;;19.43;10.47;;;22.10;1.00;;;;;;4969741;28;20580;-80
2023/10/10 07:28:49;;;;;;;17.23;10.37;;;22.80;99.90;;;;;;4975260;28;20451;-80
2023/10/10 07:31:20;;;;;;;14.90;10.90;;;23.50;99.90;;;;;;4974242;28;20427;-79
2023/10/10 07:34:03;;;;;;;13.73;9.60;;;24.20;99.90;;;;;;4963829;28;20566;-79
2023/10/10 07:36:28;;;;;;;16.70;9.77;;;24.80;99.90;;;;;;4968589;28;20503;-79
2023/10/10 07:39:17;;;;;;;10.43;8.77;;;25.60;99.90;;;;;;4974756;28;20444;-80
2023/10/10 07:41:45;;;;;;;16.63;9.67;;;26.90;99.90;;;;;;4975879;28;20652;-80
2023/10/10 07:44:11;;;;;;;13.60;9.10;;;28.00;99.90;;;;;;4977073;28;20910;-80
2023/10/10 07:46:37;;;;;;;13.17;8.30;;;28.30;99.90;;;;;;4971505;28;20439;-80
2023/10/10 07:49:03;;;;;;;12.47;8.57;;;28.20;99.90;;;;;;4973792;28;20432;-80
2023/10/10 07:51:29;;;;;;;12.77;8.47;;;28.30;99.90;;;;;;4975951;28;20595;-80
2023/10/10 07:54:28;;;;;;;13.50;8.53;;;28.60;99.90;;;;;;4974666;28;20968;-80
2023/10/10 07:56:47;;;;;;;13.40;8.80;;;29.00;99.90;;;;;;4972134;28;20843;-80
2023/10/10 07:59:13;;;;;;;11.80;8.87;;;29.50;99.90;;;;;;4974998;28;20440;-79
2023/10/10 08:01:41;;;;;;;13.60;8.70;;;29.80;99.90;;;;;;4974472;28;20432;-80
2023/10/10 08:04:07;;;;;;;13.87;8.70;;;30.20;99.90;;;;;;4970097;28;20471;-81
2023/10/10 08:06:33;;;;;;;10.07;7.40;;;30.40;99.90;;;;;;4970716;28;20470;-80
2023/10/10 08:11:46;;;;;;;10.17;7.53;;;31.20;99.90;;;;;;4962177;28;20197;-81
2023/10/10 08:14:12;;;;;;;13.40;7.50;;;31.70;99.90;;;;;;4967331;28;20461;-81
2023/10/10 08:16:39;;;;;;;14.13;8.60;;;32.10;99.90;;;;;;4972390;28;20478;-81
2023/10/10 08:19:07;;;;;;;12.13;7.37;;;32.50;99.90;;;;;;4973115;28;20182;-80
2023/10/10 08:21:38;;;;;;;11.87;7.80;;;33.40;99.90;;;;;;4974570;28;20436;-80
2023/10/10 08:24:06;;;;;;;10.93;7.10;;;33.80;99.90;;;;;;4978682;28;20913;-80
2023/10/10 08:26:39;;;;;;;9.80;7.50;;;34.20;99.90;;;;;;4978555;28;20507;-82
2023/10/10 08:29:08;;;;;;;11.47;6.90;;;34.00;99.90;;;;;;4981510;28;20963;-82
2023/10/10 08:31:36;;;;;;;8.90;6.80;;;34.10;99.90;;;;;;4980444;28;20432;-81
2023/10/10 08:34:02;;;;;;;12.00;8.23;;;34.00;99.90;;;;;;4980073;28;20486;-81
2023/10/10 08:36:27;;;;;;;11.40;6.87;;;33.50;99.90;;;;;;4978609;28;20482;-80
2023/10/10 08:38:58;;;;;;;8.87;6.40;;;33.00;99.90;;;;;;4976546;28;20437;-81
2023/10/10 08:41:28;;;;;;;13.93;7.53;;;32.70;99.90;;;;;;4973426;28;20242;-81
2023/10/10 08:43:58;;;;;;;10.37;6.97;;;32.70;99.90;;;;;;4980670;28;20452;-81
2023/10/10 08:46:29;;;;;;;9.00;6.87;;;32.60;99.90;;;;;;4979258;28;20448;-81
2023/10/10 08:48:57;;;;;;;8.00;6.30;;;32.50;99.90;;;;;;4977899;28;20492;-80
2023/10/10 08:51:23;;;;;;;8.70;6.10;;;32.40;99.90;;;;;;4978608;28;20465;-80
2023/10/10 08:53:51;;;;;;;8.33;6.37;;;32.30;99.90;;;;;;4978965;28;20463;-81
2023/10/10 08:56:17;;;;;;;7.57;6.23;;;32.30;99.90;;;;;;4975821;28;20470;-79
2023/10/10 08:58:42;;;;;;;10.10;6.67;;;32.30;99.90;;;;;;4979169;28;20445;-81
2023/10/10 09:01:08;;;;;;;10.90;6.40;;;32.20;99.90;;;;;;4980644;28;20531;-81
2023/10/10 09:03:35;;;;;;;9.10;6.43;;;32.20;99.90;;;;;;4979207;28;20204;-82
2023/10/10 09:06:21;;;;;;;8.13;5.63;;;32.60;99.90;;;;;;4977957;28;20184;-81
2023/10/10 09:08:49;;;;;;;9.30;5.10;;;32.70;99.90;;;;;;4972965;28;20439;-81
2023/10/10 09:11:16;;;;;;;8.50;5.10;;;32.80;99.90;;;;;;4975859;28;20449;-81
2023/10/10 09:13:51;;;;;;;10.83;5.77;;;32.80;99.90;;;;;;4980219;28;20840;-81
2023/10/10 09:16:44;;;;;;;8.27;4.83;;;32.60;99.90;;;;;;4978067;28;20467;-81
2023/10/10 09:19:10;;;;;;;7.00;5.17;;;32.80;99.90;;;;;;4980486;28;20439;-82
2023/10/10 09:21:50;;;;;;;8.83;5.40;;;33.10;99.90;;;;;;4980119;28;21014;-81
2023/10/10 09:24:31;;;;;;;8.13;5.47;;;33.50;99.90;;;;;;4979120;28;20501;-82
2023/10/10 09:26:59;;;;;;;9.47;6.10;;;34.00;99.90;;;;;;4979948;28;20466;-81
2023/10/10 09:29:46;;;;;;;9.50;5.27;;;34.40;99.90;;;;;;4976770;28;20525;-82
2023/10/10 09:32:15;;;;;;;5.47;4.70;;;34.40;99.90;;;;;;4980594;28;20814;-82
2023/10/10 09:34:41;;;;;;;9.60;5.37;;;34.30;99.90;;;;;;4979796;28;20518;-80
2023/10/10 09:37:17;;;;;;;12.90;5.77;;;33.70;99.90;;;;;;4984635;28;20493;-81
2023/10/10 09:39:54;;;;;;;9.20;5.83;;;33.20;99.90;;;;;;4983330;28;20186;-80
2023/10/10 09:42:52;;;;;;;11.40;5.53;;;32.90;99.90;;;;;;4982523;28;20444;-80
2023/10/10 09:45:51;;;;;;;6.70;5.20;;;33.00;99.90;;;;;;4973915;28;20497;-81
2023/10/10 09:48:33;;;;;;;9.53;5.80;;;33.40;99.90;;;;;;4972093;28;20816;-80
2023/10/10 09:51:15;;;;;;;10.47;5.67;;;33.40;99.90;;;;;;4976595;28;20498;-80
2023/10/10 09:53:46;;;;;;;8.47;5.30;;;33.70;99.90;;;;;;4974709;28;20451;-80
2023/10/10 09:56:15;;;;;;;6.83;4.90;;;34.60;99.90;;;;;;4973674;28;21083;-81
2023/10/10 09:58:44;;;;;;;8.03;5.40;;;35.20;99.90;;;;;;4974165;28;20432;-81
2023/10/10 10:01:18;;;;;;;7.33;5.17;;;35.60;99.90;;;;;;4972388;28;20436;-81
2023/10/10 10:03:56;;;;;;;7.87;4.43;;;35.80;99.90;;;;;;4970177;28;21211;-81
2023/10/10 10:09:16;;;;;;;6.10;4.37;;;36.30;99.90;;;;;;4973725;28;20942;-80
2023/10/10 10:12:11;;;;;;;8.00;4.87;;;36.00;99.90;;;;;;4974013;28;20479;-81
2023/10/10 10:15:12;;;;;;;7.10;5.37;;;36.10;99.90;;;;;;4967086;28;20856;-78
2023/10/10 10:18:13;;;;;;;8.90;4.87;;;36.50;99.90;;;;;;4973409;28;20571;-80
2023/10/10 10:23:27;;;;;;;7.80;4.80;;;37.00;99.90;;;;;;4973119;28;20498;-80
2023/10/10 10:25:55;;;;;;;8.10;4.83;;;37.40;99.90;;;;;;4976216;28;20886;-80
2023/10/10 10:28:28;;;;;;;6.67;4.93;;;37.00;99.90;;;;;;4978234;28;20822;-80
2023/10/10 10:30:54;;;;;;;7.63;4.50;;;37.30;99.90;;;;;;4977149;28;20504;-81
2023/10/10 10:33:22;;;;;;;10.43;4.67;;;37.70;99.90;;;;;;4976628;28;20436;-79
2023/10/10 10:35:48;;;;;;;5.93;4.50;;;38.10;99.90;;;;;;4976792;28;20436;-80
2023/10/10 10:38:17;;;;;;;6.73;4.80;;;38.60;99.90;;;;;;4974927;28;20475;-80
2023/10/10 10:40:46;;;;;;;7.33;4.40;;;38.40;99.90;;;;;;4977739;28;20452;-80
2023/10/10 10:43:20;;;;;;;6.17;5.10;;;38.70;99.90;;;;;;4977603;28;20451;-79
2023/10/10 10:46:11;;;;;;;14.13;4.53;;;39.00;99.90;;;;;;4970239;28;20435;-80
2023/10/10 10:48:40;;;;;;;7.93;4.60;;;39.30;99.90;;;;;;4977643;28;20436;-80
2023/10/10 10:51:22;;;;;;;9.30;4.83;;;39.50;99.90;;;;;;4978494;28;20416;-80
2023/10/10 10:53:51;;;;;;;7.00;4.83;;;39.40;99.90;;;;;;4976789;28;20491;-80
2023/10/10 11:01:26;;;;;;;10.30;5.67;;;39.40;99.90;;;;;;4978574;28;20259;-81
2023/10/10 11:03:52;;;;;;;9.70;4.97;;;39.60;99.90;;;;;;4977829;28;20436;-81
2023/10/10 11:06:20;;;;;;;5.70;4.87;;;39.80;99.90;;;;;;4979112;28;20416;-81
2023/10/10 11:14:09;;;;;;;5.63;4.47;;;40.10;99.90;;;;;;4969056;28;20464;-81
2023/10/10 11:16:38;;;;;;;5.23;4.37;;;39.70;99.90;;;;;;4976634;28;20468;-80
2023/10/10 11:21:53;;;;;;;5.20;4.07;;;39.30;99.90;;;;;;4969691;28;20917;-80
2023/10/10 11:24:29;;;;;;;10.33;5.10;;;39.10;99.90;;;;;;4973893;28;20489;-80
2023/10/10 11:29:43;;;;;;;9.77;4.57;;;38.50;99.90;;;;;;4972351;28;20443;-79
2023/10/10 11:32:11;;;;;;;6.13;4.80;;;38.30;99.90;;;;;;4976030;28;20423;-79
2023/10/10 11:34:46;;;;;;;10.37;4.30;;;37.80;99.90;;;;;;4975949;28;20890;-79
2023/10/10 11:37:32;;;;;;;7.67;4.40;;;37.30;99.90;;;;;;4976384;28;20607;-80
2023/10/10 11:40:31;;;;;;;5.90;3.80;;;37.40;99.90;;;;;;4969460;28;20503;-80
2023/10/10 11:43:04;;;;;;;8.30;4.87;;;37.40;99.90;;;;;;4982062;28;20464;-79
2023/10/10 11:45:38;;;;;;;7.20;4.80;;;36.30;99.90;;;;;;4975755;28;20925;-80
2023/10/10 11:48:12;;;;;;;8.93;4.93;;;35.80;99.90;;;;;;4971957;28;20450;-80
2023/10/10 11:50:45;;;;;;;7.77;5.30;;;35.50;99.90;;;;;;4972425;28;20455;-79
2023/10/10 11:53:27;;;;;;;10.43;4.30;;;35.10;99.90;;;;;;4973746;28;20558;-79
2023/10/10 11:55:54;;;;;;;7.53;4.60;;;34.40;99.90;;;;;;4971964;28;20434;-80
2023/10/10 11:58:21;;;;;;;5.77;4.30;;;33.90;97.80;;;;;;4975858;28;20482;-79
2023/10/10 12:01:03;;;;;;;7.10;4.70;;;33.50;98.20;;;;;;4976931;28;20994;-80
2023/10/10 12:06:19;;;;;;;8.50;4.43;;;34.50;99.90;;;;;;4976970;28;20431;-81
2023/10/10 12:08:48;;;;;;;6.00;4.20;;;35.30;99.90;;;;;;4972684;28;20483;-81
2023/10/10 12:11:19;;;;;;;6.10;5.03;;;35.90;99.90;;;;;;4977914;28;20416;-80
2023/10/10 12:13:48;;;;;;;8.23;4.10;;;36.40;99.90;;;;;;4976778;28;20543;-80
2023/10/10 12:16:17;;;;;;;6.33;4.03;;;36.80;99.90;;;;;;4977869;28;20424;-81
2023/10/10 12:18:52;;;;;;;8.87;4.60;;;37.10;99.90;;;;;;4978326;28;20427;-81
2023/10/10 12:21:20;;;;;;;10.10;4.80;;;37.30;99.90;;;;;;4978591;28;20415;-80
2023/10/10 12:23:47;;;;;;;7.77;4.20;;;37.20;99.90;;;;;;4974586;28;25557;-79
2023/10/10 12:26:13;;;;;;;8.37;4.60;;;37.30;99.90;;;;;;4978494;28;20930;-81
2023/10/10 12:28:38;;;;;;;10.93;4.47;;;37.00;99.90;;;;;;4978302;28;20420;-80
2023/10/10 12:31:05;;;;;;;7.53;4.70;;;36.90;99.90;;;;;;4973844;28;20585;-79
2023/10/10 12:33:31;;;;;;;7.73;4.37;;;36.70;99.90;;;;;;4974513;28;20216;-80
2023/10/10 12:35:57;;;;;;;8.77;4.90;;;36.60;99.90;;;;;;4971610;28;20475;-81
2023/10/10 12:38:23;;;;;;;7.90;5.00;;;36.30;99.90;;;;;;4971826;28;20428;-80
2023/10/10 12:40:53;;;;;;;15.73;5.57;;;36.30;99.90;;;;;;4972921;28;20522;-80
2023/10/10 12:43:20;;;;;;;8.77;4.33;;;36.10;99.90;;;;;;4970084;28;20456;-80
2023/10/10 12:45:46;;;;;;;8.17;5.17;;;36.20;99.90;;;;;;4972826;28;22562;-80
2023/10/10 12:48:20;;;;;;;8.90;5.33;;;36.20;99.90;;;;;;4974190;28;20443;-80
2023/10/10 12:50:46;;;;;;;7.67;4.57;;;35.80;99.90;;;;;;4965398;28;21024;-81
2023/10/10 12:53:15;;;;;;;7.90;5.30;;;35.80;99.90;;;;;;4970004;28;20502;-81
2023/10/10 12:56:02;;;;;;;8.27;4.80;;;35.70;99.90;;;;;;4972819;28;20466;-80
2023/10/10 12:58:30;;;;;;;7.00;4.83;;;35.80;99.90;;;;;;4962898;28;20522;-81
2023/10/10 13:00:57;;;;;;;8.13;4.97;;;35.50;99.90;;;;;;4969737;28;20922;-80
2023/10/10 13:03:27;;;;;;;7.57;4.57;;;35.50;99.90;;;;;;4970685;28;20450;-80
2023/10/10 13:05:58;;;;;;;8.63;4.80;;;35.50;99.90;;;;;;4968403;28;20717;-80
2023/10/10 13:08:25;;;;;;;8.53;5.63;;;35.40;99.90;;;;;;4973747;28;20935;-80
2023/10/10 13:11:02;;;;;;;9.33;5.80;;;35.10;99.90;;;;;;4975712;28;20809;-80
2023/10/10 13:13:31;;;;;;;10.93;4.93;;;35.00;99.90;;;;;;4974030;28;20455;-80
2023/10/10 13:16:21;;;;;;;9.70;5.87;;;34.90;99.90;;;;;;4970690;28;20448;-80
2023/10/10 13:18:48;;;;;;;7.70;5.47;;;34.90;99.90;;;;;;4973909;28;20820;-80
2023/10/10 13:21:14;;;;;;;8.97;5.57;;;34.80;99.90;;;;;;4972848;28;20466;-80
2023/10/10 13:23:43;;;;;;;7.40;5.30;;;34.80;99.90;;;;;;4975072;28;20460;-79
2023/10/10 13:26:09;;;;;;;10.23;5.13;;;34.80;99.90;;;;;;4973792;28;20507;-80
2023/10/10 13:28:36;;;;;;;9.33;4.57;;;34.60;99.90;;;;;;4973271;28;20539;-80
2023/10/10 13:31:02;;;;;;;15.03;5.20;;;34.50;99.90;;;;;;4973844;28;20611;-80
2023/10/10 13:33:27;;;;;;;8.40;4.50;;;34.40;99.90;;;;;;4976862;28;20447;-79
2023/10/10 13:35:53;;;;;;;14.20;4.87;;;34.20;99.90;;;;;;4977386;28;20195;-80
2023/10/10 13:38:18;;;;;;;8.67;4.60;;;33.90;99.90;;;;;;4973987;28;20227;-79
2023/10/10 13:40:46;;;;;;;7.53;4.60;;;33.70;99.90;;;;;;4971574;28;20205;-79
2023/10/10 13:43:22;;;;;;;7.70;4.30;;;33.40;99.90;;;;;;4976708;28;20593;-79
2023/10/10 13:45:48;;;;;;;8.17;4.40;;;33.30;99.90;;;;;;4977633;28;20482;-79
2023/10/10 13:48:18;;;;;;;7.43;4.00;;;33.20;99.90;;;;;;4978061;28;20432;-80
2023/10/10 13:50:45;;;;;;;11.03;4.67;;;33.20;99.90;;;;;;4977797;28;20465;-79
2023/10/10 13:53:14;;;;;;;7.73;4.50;;;33.10;99.90;;;;;;4973890;28;20476;-79
2023/10/10 13:55:44;;;;;;;7.90;4.27;;;33.00;99.90;;;;;;4978214;28;20428;-80
2023/10/10 13:58:13;;;;;;;8.80;5.20;;;33.00;99.90;;;;;;4977404;28;20478;-79
2023/10/10 14:00:41;;;;;;;7.30;4.70;;;33.00;99.90;;;;;;4974384;28;20479;-79
2023/10/10 14:03:07;;;;;;;11.83;4.20;;;33.10;99.90;;;;;;4977279;28;20537;-81
2023/10/10 14:05:37;;;;;;;8.50;4.90;;;32.90;99.90;;;;;;4977670;28;20470;-79
2023/10/10 14:08:09;;;;;;;8.53;4.90;;;32.80;99.90;;;;;;4981153;28;20436;-80
2023/10/10 14:10:39;;;;;;;8.77;4.40;;;32.70;99.90;;;;;;4978227;28;20421;-78
2023/10/10 14:13:20;;;;;;;7.93;4.70;;;32.60;99.90;;;;;;4978130;28;20449;-79
2023/10/10 14:15:57;;;;;;;8.87;4.20;;;32.40;99.90;;;;;;4978438;28;20443;-79
2023/10/10 14:18:23;;;;;;;6.60;4.33;;;32.30;99.90;;;;;;4974686;28;20500;-80
2023/10/10 14:20:50;;;;;;;8.73;5.17;;;32.20;99.90;;;;;;4993480;28;21158;-80
2023/10/10 14:23:19;;;;;;;8.40;4.60;;;32.10;99.90;;;;;;4976806;28;20472;-80
2023/10/10 14:25:47;;;;;;;8.27;5.23;;;32.00;99.90;;;;;;4978295;28;20437;-80
2023/10/10 14:28:16;;;;;;;11.40;4.60;;;31.90;99.90;;;;;;4977997;28;20451;-80
2023/10/10 14:30:43;;;;;;;16.47;4.87;;;31.90;99.90;;;;;;4976064;28;20469;-79
2023/10/10 14:33:08;;;;;;;9.70;4.70;;;31.80;99.90;;;;;;4971333;28;20552;-79
2023/10/10 14:35:34;;;;;;;11.73;4.43;;;31.80;99.90;;;;;;4974147;28;20485;-79
2023/10/10 14:38:00;;;;;;;8.67;4.80;;;31.60;99.90;;;;;;4973624;28;20303;-79
2023/10/10 14:40:27;;;;;;;10.63;4.60;;;31.60;99.90;;;;;;4977130;28;20269;-80
2023/10/10 14:42:52;;;;;;;9.03;4.13;;;31.40;99.90;;;;;;4976828;28;20515;-80
2023/10/10 14:45:21;;;;;;;10.77;4.20;;;31.30;99.90;;;;;;4977540;28;20455;-79
2023/10/10 14:47:47;;;;;;;9.40;4.40;;;31.30;99.90;;;;;;4976334;28;20198;-79
2023/10/10 14:50:12;;;;;;;8.03;4.17;;;31.20;99.90;;;;;;4970510;28;20452;-80
2023/10/10 14:52:47;;;;;;;8.63;4.03;;;31.00;99.90;;;;;;4978305;28;20215;-80
2023/10/10 14:55:27;;;;;;;8.40;3.63;;;30.80;99.90;;;;;;4978715;28;20450;-80
2023/10/10 14:57:56;;;;;;;5.83;3.53;;;30.70;99.90;;;;;;4978032;28;20517;-80
2023/10/10 15:00:28;;;;;;;8.40;3.60;;;30.50;99.90;;;;;;4978764;28;20430;-79
2023/10/10 15:02:54;;;;;;;6.67;3.50;;;30.40;99.90;;;;;;4979009;28;20454;-80
2023/10/10 15:05:26;;;;;;;9.83;3.43;;;30.20;99.90;;;;;;4979084;28;20523;-79
2023/10/10 15:07:52;;;;;;;13.33;3.80;;;30.10;99.90;;;;;;4973443;28;20439;-80
2023/10/10 15:10:25;;;;;;;10.63;3.47;;;30.10;99.90;;;;;;4977012;28;20801;-80
2023/10/10 15:12:54;;;;;;;7.50;4.00;;;29.90;99.90;;;;;;4976466;28;20474;-81
2023/10/10 15:15:22;;;;;;;8.83;3.30;;;29.70;99.90;;;;;;4980212;28;20801;-81
2023/10/10 15:17:49;;;;;;;7.40;3.43;;;29.50;99.90;;;;;;4980018;28;21222;-80
2023/10/10 15:20:15;;;;;;;9.03;3.23;;;29.30;99.90;;;;;;4980297;28;20430;-80
2023/10/10 15:22:41;;;;;;;7.03;4.43;;;29.10;99.90;;;;;;4976937;28;20451;-80
2023/10/10 15:25:10;;;;;;;6.00;3.33;;;28.80;99.90;;;;;;4974292;28;20186;-80
2023/10/10 15:27:41;;;;;;;8.50;4.20;;;28.60;99.90;;;;;;4973650;28;20516;-79
2023/10/10 15:30:08;;;;;;;7.53;3.20;;;28.40;99.90;;;;;;4967690;28;20425;-80
2023/10/10 15:32:43;;;;;;;7.07;4.10;;;28.30;99.90;;;;;;4975293;28;20555;-80
2023/10/10 15:35:10;;;;;;;8.73;3.80;;;28.30;99.90;;;;;;4974080;28;20433;-79
2023/10/10 15:37:42;;;;;;;7.77;3.77;;;28.20;99.90;;;;;;4970944;28;20560;-79
2023/10/10 15:40:23;;;;;;;6.27;4.00;;;28.10;99.90;;;;;;4989060;28;20496;-79
2023/10/10 15:42:52;;;;;;;10.43;4.20;;;28.10;99.90;;;;;;4973239;28;20970;-79
2023/10/10 15:45:20;;;;;;;8.10;3.60;;;27.90;99.90;;;;;;4972090;28;20555;-79